createdAt,value
2023-04-11T00:02:20.089Z,96571.25
2023-04-11T00:04:47.286Z,96575.25
2023-04-11T00:07:13.673Z,96564.03
2023-04-11T00:09:40.226Z,96548.69
2023-04-11T00:12:06.819Z,96527.31
2023-04-11T00:14:34.666Z,96518.91
2023-04-11T00:17:01.407Z,96510.75
2023-04-11T00:19:28.314Z,96490.28
2023-04-11T00:21:58.396Z,96480.94
2023-04-11T00:24:26.317Z,96480.06
2023-04-11T00:26:53.040Z,96471.97
2023-04-11T00:29:19.397Z,96460.13
2023-04-11T00:31:45.759Z,96463.97
2023-04-11T00:34:12.138Z,96483.22
2023-04-11T00:36:40.703Z,96502.84
2023-04-11T00:39:08.890Z,96516.31
2023-04-11T00:41:35.753Z,96522.88
2023-04-11T00:44:02.086Z,96533.03
2023-04-11T00:46:28.661Z,96541.69
2023-04-11T00:48:55.577Z,96554.16
2023-04-11T00:51:22.444Z,96550.06
2023-04-11T00:53:48.877Z,96553.00
2023-04-11T00:56:15.479Z,96538.97
2023-04-11T00:58:42.186Z,96526.50
2023-04-11T01:01:11.642Z,96510.91
2023-04-11T01:03:39.037Z,96516.16
2023-04-11T01:06:06.884Z,96516.28
2023-04-11T01:08:33.955Z,96513.94
2023-04-11T01:11:00.835Z,96511.44
2023-04-11T01:13:27.568Z,96498.53
2023-04-11T01:15:53.983Z,96491.72
2023-04-11T01:18:20.356Z,96493.09
2023-04-11T01:20:46.704Z,96506.41
2023-04-11T01:23:13.576Z,96502.16
2023-04-11T01:25:40.034Z,96503.53
2023-04-11T01:28:06.468Z,96511.03
2023-04-11T01:30:32.825Z,96499.81
2023-04-11T01:32:59.217Z,96486.22
2023-04-11T01:35:25.773Z,96489.53
2023-04-11T01:37:52.399Z,96488.50
2023-04-11T01:40:19.534Z,96473.53
2023-04-11T01:42:46.839Z,96475.09
2023-04-11T01:45:13.388Z,96481.34
2023-04-11T01:47:39.867Z,96478.88
2023-04-11T01:50:07.002Z,96480.34
2023-04-11T01:52:33.334Z,96475.50
2023-04-11T01:54:59.677Z,96461.47
2023-04-11T01:57:26.404Z,96464.75
2023-04-11T01:59:52.720Z,96469.25
2023-04-11T02:02:19.242Z,96469.59
2023-04-11T02:04:45.759Z,96438.00
2023-04-11T02:07:12.239Z,96432.44
2023-04-11T02:09:38.601Z,96436.56
2023-04-11T02:12:05.183Z,96441.31
2023-04-11T02:14:42.175Z,96436.56
2023-04-11T02:17:09.989Z,96430.34
2023-04-11T02:19:45.234Z,96447.84
2023-04-11T02:22:11.929Z,96448.97
2023-04-11T02:24:38.618Z,96450.50
2023-04-11T02:27:04.981Z,96439.03
2023-04-11T02:29:31.445Z,96450.78
2023-04-11T02:31:57.909Z,96454.22
2023-04-11T02:34:24.463Z,96453.25
2023-04-11T02:36:50.943Z,96468.44
2023-04-11T02:39:17.514Z,96460.28
2023-04-11T02:41:43.848Z,96470.72
2023-04-11T02:44:10.945Z,96450.94
2023-04-11T02:46:37.450Z,96459.03
2023-04-11T02:49:04.531Z,96452.16
2023-04-11T02:51:31.026Z,96445.31
2023-04-11T02:53:57.430Z,96442.00
2023-04-11T02:56:23.795Z,96440.56
2023-04-11T02:58:52.524Z,96438.44
2023-04-11T03:01:19.422Z,96434.19
2023-04-11T03:03:45.831Z,96439.09
2023-04-11T03:06:12.546Z,96434.19
2023-04-11T03:08:39.126Z,96440.41
2023-04-11T03:11:06.357Z,96433.72
2023-04-11T03:13:33.921Z,96427.38
2023-04-11T03:16:00.467Z,96413.63
2023-04-11T03:18:26.862Z,96411.69
2023-04-11T03:20:53.236Z,96416.91
2023-04-11T03:23:19.573Z,96402.53
2023-04-11T03:25:47.924Z,96392.56
2023-04-11T03:28:14.557Z,96385.53
2023-04-11T03:30:42.523Z,96386.84
2023-04-11T03:33:08.981Z,96385.69
2023-04-11T03:35:36.009Z,96382.88
2023-04-11T03:38:02.766Z,96370.97
2023-04-11T03:40:29.130Z,96369.53
2023-04-11T03:42:56.090Z,96368.25
2023-04-11T03:45:22.452Z,96367.91
2023-04-11T03:47:48.790Z,96367.88
2023-04-11T03:50:15.109Z,96367.59
2023-04-11T03:52:41.434Z,96347.66
2023-04-11T03:55:07.996Z,96346.00
2023-04-11T03:57:34.311Z,96346.81
2023-04-11T04:00:01.167Z,96336.56
2023-04-11T04:02:27.615Z,96331.38
2023-04-11T04:04:58.921Z,96336.88
2023-04-11T04:07:25.657Z,96342.59
2023-04-11T04:09:52.298Z,96340.16
2023-04-11T04:12:19.444Z,96333.28
2023-04-11T04:14:46.246Z,96329.34
2023-04-11T04:17:13.712Z,96330.66
2023-04-11T04:19:40.074Z,96329.34
2023-04-11T04:22:11.699Z,96322.19
2023-04-11T04:24:39.481Z,96316.44
2023-04-11T04:27:09.002Z,96313.81
2023-04-11T04:29:38.207Z,96313.03
2023-04-11T04:32:12.394Z,96299.31
2023-04-11T04:34:40.452Z,96299.31
2023-04-11T04:37:07.919Z,96297.66
2023-04-11T04:39:34.282Z,96292.75
2023-04-11T04:42:01.051Z,96299.28
2023-04-11T04:44:27.670Z,96296.84
2023-04-11T04:46:54.512Z,96288.50
2023-04-11T04:49:21.124Z,96292.31
2023-04-11T04:51:47.874Z,96292.91
2023-04-11T04:54:14.423Z,96288.38
2023-04-11T04:56:42.210Z,96297.03
2023-04-11T04:59:08.600Z,96306.66
2023-04-11T05:01:35.280Z,96315.81
2023-04-11T05:04:02.234Z,96330.38
2023-04-11T05:06:31.488Z,96338.19
2023-04-11T05:08:59.043Z,96337.22
2023-04-11T05:11:28.661Z,96346.84
2023-04-11T05:13:55.838Z,96339.50
2023-04-11T05:16:22.339Z,96339.19
2023-04-11T05:18:48.834Z,96330.03
2023-04-11T05:21:15.248Z,96327.72
2023-04-11T05:23:41.682Z,96328.88
2023-04-11T05:26:08.716Z,96324.63
2023-04-11T05:28:35.714Z,96321.19
2023-04-11T05:31:05.087Z,96311.03
2023-04-11T05:33:31.667Z,96319.81
2023-04-11T05:35:58.178Z,96314.94
2023-04-11T05:38:24.549Z,96310.66
2023-04-11T05:40:51.007Z,96315.09
2023-04-11T05:43:17.410Z,96328.00
2023-04-11T05:45:48.125Z,96319.81
2023-04-11T05:48:16.005Z,96319.78
2023-04-11T05:50:42.660Z,96322.25
2023-04-11T05:53:09.136Z,96324.88
2023-04-11T05:55:36.152Z,96328.34
2023-04-11T05:58:02.503Z,96329.09
2023-04-11T06:00:31.032Z,96337.81
2023-04-11T06:02:57.944Z,96339.09
2023-04-11T06:05:24.630Z,96346.72
2023-04-11T06:07:51.171Z,96348.72
2023-04-11T06:10:17.590Z,96344.94
2023-04-11T06:12:43.943Z,96341.63
2023-04-11T06:15:11.854Z,96349.47
2023-04-11T06:17:38.487Z,96355.06
2023-04-11T06:20:06.222Z,96358.78
2023-04-11T06:22:33.582Z,96362.53
2023-04-11T06:24:59.938Z,96369.41
2023-04-11T06:27:26.735Z,96386.09
2023-04-11T06:29:53.141Z,96417.00
2023-04-11T06:32:19.916Z,96419.16
2023-04-11T06:34:46.525Z,96427.97
2023-04-11T06:37:15.200Z,96433.41
2023-04-11T06:39:41.620Z,96420.84
2023-04-11T06:42:08.008Z,96418.19
2023-04-11T06:44:34.635Z,96427.03
2023-04-11T06:47:01.111Z,96432.56
2023-04-11T06:49:28.280Z,96438.78
2023-04-11T06:51:55.853Z,96441.25
2023-04-11T06:54:23.704Z,96431.88
2023-04-11T06:56:53.145Z,96432.72
2023-04-11T06:59:20.372Z,96435.41
2023-04-11T07:01:47.095Z,96423.50
2023-04-11T07:04:13.618Z,96432.50
2023-04-11T07:06:40.682Z,96437.09
2023-04-11T07:09:07.178Z,96444.97
2023-04-11T07:11:33.808Z,96435.50
2023-04-11T07:14:00.577Z,96448.03
2023-04-11T07:16:27.175Z,96448.19
2023-04-11T07:18:54.453Z,96452.97
2023-04-11T07:21:21.311Z,96450.66
2023-04-11T07:23:47.862Z,96461.63
2023-04-11T07:26:14.609Z,96458.72
2023-04-11T07:28:44.080Z,96460.16
2023-04-11T07:31:12.101Z,96464.25
2023-04-11T07:33:38.633Z,96473.09
2023-04-11T07:36:06.083Z,96469.50
2023-04-11T07:38:33.251Z,96465.56
2023-04-11T07:41:00.757Z,96463.78
2023-04-11T07:43:27.710Z,96466.19
2023-04-11T07:45:54.802Z,96468.28
2023-04-11T07:48:21.514Z,96467.13
2023-04-11T07:50:48.054Z,96468.44
2023-04-11T07:53:14.524Z,96461.59
2023-04-11T07:55:41.009Z,96459.28
2023-04-11T07:58:07.343Z,96459.88
2023-04-11T08:00:33.898Z,96470.19
2023-04-11T08:03:04.508Z,96464.97
2023-04-11T08:05:31.415Z,96473.94
2023-04-11T08:07:58.033Z,96479.59
2023-04-11T08:10:24.565Z,96477.00
2023-04-11T08:12:51.017Z,96487.78
2023-04-11T08:15:17.941Z,96483.09
2023-04-11T08:17:45.512Z,96487.63
2023-04-11T08:20:12.352Z,96488.06
2023-04-11T08:22:44.530Z,96501.75
2023-04-11T08:25:11.775Z,96495.72
2023-04-11T08:27:38.605Z,96489.41
2023-04-11T08:30:06.791Z,96486.94
2023-04-11T08:32:33.110Z,96467.72
2023-04-11T08:34:59.462Z,96475.16
2023-04-11T08:37:26.266Z,96461.50
2023-04-11T08:39:52.592Z,96446.53
2023-04-11T08:42:29.168Z,96454.44
2023-04-11T08:44:56.637Z,96448.66
2023-04-11T08:47:23.575Z,96455.75
2023-04-11T08:49:50.542Z,96449.06
2023-04-11T08:52:19.234Z,96461.00
2023-04-11T08:54:46.344Z,96436.22
2023-04-11T08:57:25.853Z,96445.00
2023-04-11T08:59:53.331Z,96453.28
2023-04-11T09:02:20.167Z,96459.25
2023-04-11T09:04:47.572Z,96452.06
2023-04-11T09:07:16.306Z,96456.75
2023-04-11T09:09:43.453Z,96451.31
2023-04-11T09:12:09.943Z,96444.50
2023-04-11T09:14:36.452Z,96460.22
2023-04-11T09:17:06.676Z,96449.09
2023-04-11T09:19:34.038Z,96455.56
2023-04-11T09:22:01.644Z,96458.72
2023-04-11T09:24:28.194Z,96451.94
2023-04-11T09:27:07.878Z,96470.09
2023-04-11T09:29:37.965Z,96464.16
2023-04-11T09:32:04.403Z,96470.47
2023-04-11T09:34:31.238Z,96463.53
2023-04-11T09:36:57.670Z,96466.47
2023-04-11T09:39:26.602Z,96457.56
2023-04-11T09:41:53.126Z,96458.09
2023-04-11T09:44:19.655Z,96454.19
2023-04-11T09:46:59.317Z,96452.00
2023-04-11T09:49:26.259Z,96459.38
2023-04-11T09:51:53.052Z,96453.91
2023-04-11T09:54:20.769Z,96450.03
2023-04-11T09:56:51.342Z,96439.50
2023-04-11T09:59:19.123Z,96442.00
2023-04-11T10:01:47.119Z,96438.97
2023-04-11T10:04:14.461Z,96434.41
2023-04-11T10:06:44.909Z,96432.97
2023-04-11T10:09:12.402Z,96438.53
2023-04-11T10:11:43.002Z,96423.06
2023-04-11T10:14:09.593Z,96416.22
2023-04-11T10:16:37.410Z,96416.63
2023-04-11T10:19:04.592Z,96432.78
2023-04-11T10:21:30.962Z,96408.06
2023-04-11T10:24:07.614Z,96404.19
2023-04-11T10:26:53.516Z,96402.34
2023-04-11T10:29:40.459Z,96414.56
2023-04-11T10:32:20.344Z,96424.09
2023-04-11T10:34:51.459Z,96410.91
2023-04-11T10:37:19.393Z,96410.13
2023-04-11T10:39:52.174Z,96433.75
2023-04-11T10:42:31.507Z,96427.59
2023-04-11T10:45:17.721Z,96423.53
2023-04-11T10:48:05.569Z,96425.56
2023-04-11T10:50:32.088Z,96426.09
2023-04-11T10:52:59.636Z,96427.03
2023-04-11T10:55:27.388Z,96415.59
2023-04-11T10:58:02.852Z,96420.25
2023-04-11T11:00:30.629Z,96410.66
2023-04-11T11:02:58.409Z,96412.44
2023-04-11T11:05:24.927Z,96398.44
2023-04-11T11:07:52.448Z,96413.13
2023-04-11T11:10:34.879Z,96424.22
2023-04-11T11:13:01.202Z,96419.13
2023-04-11T11:15:29.485Z,96420.81
2023-04-11T11:17:55.944Z,96444.16
2023-04-11T11:20:23.119Z,96438.66
2023-04-11T11:22:59.373Z,96463.84
2023-04-11T11:25:26.014Z,96454.81
2023-04-11T11:28:08.467Z,96463.84
2023-04-11T11:30:38.806Z,96453.16
2023-04-11T11:33:15.893Z,96445.34
2023-04-11T11:35:43.210Z,96452.72
2023-04-11T11:38:09.642Z,96444.97
2023-04-11T11:40:36.622Z,96451.66
2023-04-11T11:43:04.460Z,96441.13
2023-04-11T11:45:32.927Z,96441.31
2023-04-11T11:47:59.345Z,96454.31
2023-04-11T11:50:26.904Z,96461.19
2023-04-11T11:52:53.345Z,96462.69
2023-04-11T11:55:19.665Z,96469.28
2023-04-11T11:57:47.162Z,96465.25
2023-04-11T12:00:14.907Z,96464.66
2023-04-11T12:02:44.601Z,96465.25
2023-04-11T12:05:12.287Z,96459.69
2023-04-11T12:07:39.208Z,96459.16
2023-04-11T12:10:09.447Z,96454.09
2023-04-11T12:12:36.734Z,96440.50
2023-04-11T12:15:03.887Z,96458.38
2023-04-11T12:17:38.021Z,96457.75
2023-04-11T12:20:08.370Z,96469.09
2023-04-11T12:22:34.875Z,96474.50
2023-04-11T12:25:14.130Z,96474.56
2023-04-11T12:27:44.419Z,96494.88
2023-04-11T12:30:11.515Z,96494.97
2023-04-11T12:32:38.237Z,96492.97
2023-04-11T12:35:05.782Z,96485.38
2023-04-11T12:37:33.032Z,96491.63
2023-04-11T12:39:59.395Z,96486.19
2023-04-11T12:42:27.366Z,96488.84
2023-04-11T12:44:54.200Z,96477.47
2023-04-11T12:47:20.605Z,96471.19
2023-04-11T12:49:46.985Z,96472.34
2023-04-11T12:52:13.345Z,96468.06
2023-04-11T12:54:39.828Z,96480.66
2023-04-11T12:57:07.547Z,96470.28
2023-04-11T12:59:33.949Z,96479.00
2023-04-11T13:02:00.348Z,96479.03
2023-04-11T13:04:26.908Z,96480.50
2023-04-11T13:06:53.388Z,96502.03
2023-04-11T13:09:19.710Z,96521.13
2023-04-11T13:11:46.141Z,96514.38
2023-04-11T13:14:12.517Z,96515.66
2023-04-11T13:16:38.889Z,96508.44
2023-04-11T13:19:05.441Z,96515.81
2023-04-11T13:21:32.538Z,96527.50
2023-04-11T13:23:58.932Z,96524.41
2023-04-11T13:26:25.252Z,96527.38
2023-04-11T13:28:51.950Z,96528.16
2023-04-11T13:31:19.378Z,96532.78
2023-04-11T13:33:47.921Z,96525.78
2023-04-11T13:36:14.299Z,96531.78
2023-04-11T13:38:40.651Z,96546.97
2023-04-11T13:41:07.114Z,96541.47
2023-04-11T13:43:33.440Z,96539.59
2023-04-11T13:45:59.804Z,96545.91
2023-04-11T13:48:26.337Z,96562.97
2023-04-11T13:50:52.760Z,96568.81
2023-04-11T13:53:19.112Z,96566.03
2023-04-11T13:55:47.684Z,96549.13
2023-04-11T13:58:14.418Z,96553.19
2023-04-11T14:00:41.098Z,96550.91
2023-04-11T14:03:07.646Z,96552.97
2023-04-11T14:05:35.623Z,96549.25
2023-04-11T14:08:02.250Z,96541.59
2023-04-11T14:10:28.606Z,96547.31
2023-04-11T14:12:54.928Z,96546.56
2023-04-11T14:15:21.970Z,96547.47
2023-04-11T14:17:48.505Z,96540.38
2023-04-11T14:20:15.144Z,96547.66
2023-04-11T14:22:42.925Z,96541.66
2023-04-11T14:25:11.128Z,96532.66
2023-04-11T14:27:40.088Z,96539.25
2023-04-11T14:30:08.035Z,96536.56
2023-04-11T14:32:34.397Z,96530.13
2023-04-11T14:35:02.217Z,96541.00
2023-04-11T14:37:28.915Z,96537.75
2023-04-11T14:39:55.401Z,96542.09
2023-04-11T14:42:21.849Z,96557.84
2023-04-11T14:44:50.220Z,96563.88
2023-04-11T14:47:16.912Z,96573.88
2023-04-11T14:49:43.285Z,96564.84
2023-04-11T14:52:09.691Z,96603.75
2023-04-11T14:54:36.123Z,96651.31
2023-04-11T14:57:03.710Z,96666.03
2023-04-11T14:59:30.816Z,96653.63
2023-04-11T15:01:58.223Z,96640.41
2023-04-11T15:04:24.831Z,96631.50
2023-04-11T15:06:51.316Z,96622.50
2023-04-11T15:09:19.985Z,96618.81
2023-04-11T15:11:46.907Z,96614.97
2023-04-11T15:14:13.608Z,96618.22
2023-04-11T15:16:41.987Z,96611.19
2023-04-11T15:19:09.689Z,96610.38
2023-04-11T15:21:36.419Z,96604.31
2023-04-11T15:24:07.208Z,96595.59
2023-04-11T15:26:33.881Z,96600.16
2023-04-11T15:29:00.754Z,96605.19
2023-04-11T15:31:27.367Z,96604.41
2023-04-11T15:33:54.955Z,96596.44
2023-04-11T15:36:22.433Z,96595.38
2023-04-11T15:38:48.787Z,96586.16
2023-04-11T15:41:15.185Z,96588.47
2023-04-11T15:43:42.728Z,96590.66
2023-04-11T15:46:09.231Z,96595.41
2023-04-11T15:48:35.748Z,96583.09
2023-04-11T15:51:08.013Z,96586.81
2023-04-11T15:53:34.341Z,96586.00
2023-04-11T15:56:03.516Z,96589.56
2023-04-11T15:58:30.899Z,96581.50
2023-04-11T16:01:03.964Z,96599.75
2023-04-11T16:03:33.438Z,96591.00
2023-04-11T16:06:01.152Z,96603.50
2023-04-11T16:08:27.570Z,96599.75
2023-04-11T16:10:54.138Z,96606.16
2023-04-11T16:13:20.658Z,96624.38
2023-04-11T16:15:46.993Z,96637.06
2023-04-11T16:18:14.411Z,96638.44
2023-04-11T16:20:40.986Z,96629.19
2023-04-11T16:23:07.336Z,96624.59
2023-04-11T16:25:33.658Z,96626.88
2023-04-11T16:28:00.134Z,96624.25
2023-04-11T16:30:27.932Z,96635.69
2023-04-11T16:32:54.406Z,96631.84
2023-04-11T16:35:21.048Z,96625.00
2023-04-11T16:37:47.613Z,96626.47
2023-04-11T16:40:13.997Z,96624.19
2023-04-11T16:42:40.436Z,96619.94
2023-04-11T16:45:07.536Z,96629.09
2023-04-11T16:47:33.946Z,96616.50
2023-04-11T16:50:00.317Z,96629.94
2023-04-11T16:52:26.784Z,96641.81
2023-04-11T16:54:53.101Z,96638.75
2023-04-11T16:57:20.141Z,96633.38
2023-04-11T16:59:46.591Z,96633.19
2023-04-11T17:02:13.143Z,96624.84
2023-04-11T17:04:39.628Z,96632.69
2023-04-11T17:07:06.012Z,96633.38
2023-04-11T17:09:32.415Z,96621.41
2023-04-11T17:11:59.088Z,96623.38
2023-04-11T17:14:25.991Z,96622.38
2023-04-11T17:16:52.405Z,96617.50
2023-04-11T17:19:18.775Z,96630.41
2023-04-11T17:21:45.217Z,96620.13
2023-04-11T17:24:11.564Z,96616.97
2023-04-11T17:26:38.142Z,96614.69
2023-04-11T17:29:06.527Z,96610.78
2023-04-11T17:31:32.935Z,96604.88
2023-04-11T17:33:59.518Z,96598.69
2023-04-11T17:36:26.119Z,96604.72
2023-04-11T17:38:54.665Z,96602.91
2023-04-11T17:41:21.504Z,96608.66
2023-04-11T17:43:47.854Z,96604.22
2023-04-11T17:46:14.627Z,96615.19
2023-04-11T17:48:42.062Z,96614.34
2023-04-11T17:51:08.408Z,96623.81
2023-04-11T17:53:34.742Z,96627.38
2023-04-11T17:56:05.618Z,96623.94
2023-04-11T17:58:32.189Z,96625.22
2023-04-11T18:00:58.691Z,96629.59
2023-04-11T18:03:25.901Z,96630.53
2023-04-11T18:05:54.850Z,96632.84
2023-04-11T18:08:26.615Z,96634.38
2023-04-11T18:10:59.761Z,96630.13
2023-04-11T18:13:27.460Z,96632.69
2023-04-11T18:15:54.078Z,96634.91
2023-04-11T18:18:20.543Z,96636.41
2023-04-11T18:20:46.869Z,96635.84
2023-04-11T18:23:13.218Z,96634.41
2023-04-11T18:25:39.535Z,96636.13
2023-04-11T18:28:05.932Z,96625.75
2023-04-11T18:30:33.107Z,96636.63
2023-04-11T18:32:59.450Z,96635.38
2023-04-11T18:35:26.045Z,96639.59
2023-04-11T18:37:53.934Z,96650.47
2023-04-11T18:40:20.504Z,96651.25
2023-04-11T18:42:48.455Z,96647.56
2023-04-11T18:45:18.392Z,96656.06
2023-04-11T18:47:47.939Z,96660.91
2023-04-11T18:50:15.088Z,96661.72
2023-04-11T18:52:42.566Z,96668.03
2023-04-11T18:55:11.067Z,96664.72
2023-04-11T18:57:38.579Z,96670.31
2023-04-11T19:00:18.573Z,96669.84
2023-04-11T19:02:46.759Z,96676.69
2023-04-11T19:05:14.352Z,96675.47
2023-04-11T19:07:42.134Z,96680.00
2023-04-11T19:10:09.086Z,96675.22
2023-04-11T19:12:37.200Z,96681.94
2023-04-11T19:15:05.151Z,96693.91
2023-04-11T19:17:31.645Z,96702.66
2023-04-11T19:19:58.122Z,96699.41
2023-04-11T19:22:24.565Z,96700.34
2023-04-11T19:24:50.993Z,96700.38
2023-04-11T19:27:18.361Z,96700.84
2023-04-11T19:29:45.322Z,96698.63
2023-04-11T19:32:12.680Z,96696.06
2023-04-11T19:34:39.088Z,96699.19
2023-04-11T19:37:06.815Z,96703.16
2023-04-11T19:39:38.137Z,96708.22
2023-04-11T19:42:04.834Z,96706.38
2023-04-11T19:44:31.338Z,96694.06
2023-04-11T19:46:57.759Z,96692.94
2023-04-11T19:49:24.130Z,96704.97
2023-04-11T19:51:50.939Z,96682.00
2023-04-11T19:54:17.658Z,96663.75
2023-04-11T19:56:49.181Z,96673.50
2023-04-11T19:59:15.876Z,96660.53
2023-04-11T20:01:42.584Z,96671.19
2023-04-11T20:04:09.938Z,96654.22
2023-04-11T20:06:36.456Z,96654.13
2023-04-11T20:09:04.120Z,96643.09
2023-04-11T20:11:32.757Z,96643.38
2023-04-11T20:13:59.340Z,96640.72
2023-04-11T20:16:26.417Z,96634.75
2023-04-11T20:18:53.532Z,96647.44
2023-04-11T20:21:20.007Z,96642.06
2023-04-11T20:23:46.535Z,96629.22
2023-04-11T20:26:12.956Z,96633.38
2023-04-11T20:28:43.119Z,96635.59
2023-04-11T20:31:09.670Z,96638.44
2023-04-11T20:33:40.447Z,96635.75
2023-04-11T20:36:07.842Z,96637.59
2023-04-11T20:38:34.410Z,96634.00
2023-04-11T20:41:03.900Z,96633.88
2023-04-11T20:43:30.605Z,96630.56
2023-04-11T20:45:57.606Z,96630.03
2023-04-11T20:48:25.889Z,96629.84
2023-04-11T20:50:53.637Z,96626.53
2023-04-11T20:53:20.096Z,96628.09
2023-04-11T20:55:48.708Z,96626.91
2023-04-11T20:58:18.681Z,96621.31
2023-04-11T21:00:45.476Z,96631.50
2023-04-11T21:03:12.470Z,96629.91
2023-04-11T21:05:40.047Z,96632.28
2023-04-11T21:08:06.685Z,96635.03
2023-04-11T21:10:33.181Z,96631.88
2023-04-11T21:12:59.529Z,96625.63
2023-04-11T21:15:26.118Z,96629.44
2023-04-11T21:17:52.806Z,96631.53
2023-04-11T21:20:20.138Z,96622.13
2023-04-11T21:22:47.014Z,96629.03
2023-04-11T21:25:13.696Z,96624.31
2023-04-11T21:27:41.504Z,96619.94
2023-04-11T21:30:11.331Z,96616.75
2023-04-11T21:32:38.303Z,96613.91
2023-04-11T21:35:06.447Z,96609.69
2023-04-11T21:37:32.977Z,96609.72
2023-04-11T21:39:59.890Z,96610.69
2023-04-11T21:42:26.344Z,96604.09
2023-04-11T21:44:52.694Z,96605.63
2023-04-11T21:47:19.348Z,96612.50
2023-04-11T21:49:49.256Z,96600.56
2023-04-11T21:52:15.740Z,96597.84
2023-04-11T21:54:44.465Z,96592.63
2023-04-11T21:57:11.215Z,96591.56
2023-04-11T21:59:38.910Z,96590.88
2023-04-11T22:02:05.916Z,96585.00
2023-04-11T22:04:37.238Z,96587.47
2023-04-11T22:07:08.071Z,96584.53
2023-04-11T22:09:38.167Z,96588.81
2023-04-11T22:12:04.639Z,96593.72
2023-04-11T22:14:30.961Z,96580.59
2023-04-11T22:16:58.185Z,96575.38
2023-04-11T22:19:24.893Z,96574.97
2023-04-11T22:21:55.486Z,96566.41
2023-04-11T22:24:23.876Z,96576.66
2023-04-11T22:26:53.842Z,96581.00
2023-04-11T22:29:21.691Z,96575.41
2023-04-11T22:31:49.662Z,96576.34
2023-04-11T22:34:16.400Z,96576.22
2023-04-11T22:36:42.740Z,96583.03
2023-04-11T22:39:09.458Z,96580.31
2023-04-11T22:41:38.507Z,96581.13
2023-04-11T22:44:05.837Z,96580.59
2023-04-11T22:46:33.827Z,96577.50
2023-04-11T22:49:00.299Z,96578.78
2023-04-11T22:51:30.211Z,96563.88
2023-04-11T22:53:57.147Z,96568.00
2023-04-11T22:56:23.664Z,96563.50
2023-04-11T22:58:50.104Z,96562.50
2023-04-11T23:01:16.562Z,96557.63
2023-04-11T23:03:43.896Z,96551.84
2023-04-11T23:06:10.946Z,96550.66
2023-04-11T23:08:37.416Z,96546.13
2023-04-11T23:11:03.878Z,96534.50
2023-04-11T23:13:30.435Z,96538.47
2023-04-11T23:15:56.843Z,96530.53
2023-04-11T23:18:23.179Z,96526.56
2023-04-11T23:20:50.459Z,96531.19
2023-04-11T23:23:16.801Z,96520.16
2023-04-11T23:25:43.149Z,96517.16
2023-04-11T23:28:09.518Z,96509.88
2023-04-11T23:30:36.001Z,96518.34
2023-04-11T23:33:02.721Z,96512.41
2023-04-11T23:35:29.154Z,96517.00
2023-04-11T23:37:55.528Z,96511.09
2023-04-11T23:40:22.834Z,96514.22
2023-04-11T23:42:49.150Z,96509.56
2023-04-11T23:45:20.394Z,96515.97
2023-04-11T23:47:46.755Z,96514.59
2023-04-11T23:50:14.364Z,96516.63
2023-04-11T23:52:40.790Z,96512.94
2023-04-11T23:55:07.562Z,96516.63
2023-04-11T23:57:34.021Z,96508.44
